Time;durP1;ratioP1;P1;durP2;ratioP2;P2;SDS_P1;SDS_P2;PMS_P1;PMS_P2;Temp;Humidity;BMP_temperature;BMP_pressure;BME280_temperature;BME280_humidity;BME280_pressure;Samples;Min_cycle;Max_cycle;Signal;HPM_P1;HPM_P2
2022/01/13 00:00:15;;;;;;;26.40;14.50;;;;;;;;;;5031103;28;20013;-83
2022/01/13 00:02:42;;;;;;;26.45;15.55;;;;;;;;;;5034949;28;20036;-81
2022/01/13 00:05:08;;;;;;;32.05;16.15;;;;;;;;;;5036670;28;20020;-83
2022/01/13 00:07:36;;;;;;;28.50;15.38;;;;;;;;;;5013232;28;20026;-80
2022/01/13 00:10:03;;;;;;;20.50;12.75;;;;;;;;;;5032619;28;20022;-81
2022/01/13 00:12:40;;;;;;;23.02;13.45;;;;;;;;;;5033805;28;20108;-82
2022/01/13 00:15:10;;;;;;;23.55;13.70;;;;;;;;;;5030109;28;20022;-82
2022/01/13 00:25:38;;;;;;;21.25;11.05;;;;;;;;;;4993952;28;20087;-81
2022/01/13 00:28:15;;;;;;;17.42;9.63;;;;;;;;;;5005621;28;20117;-81
2022/01/13 00:30:44;;;;;;;11.70;5.97;;;;;;;;;;5020178;28;20053;-81
2022/01/13 00:33:11;;;;;;;12.90;6.30;;;;;;;;;;5019943;28;20033;-80
2022/01/13 00:35:38;;;;;;;13.15;5.97;;;;;;;;;;5025236;28;20030;-81
2022/01/13 00:38:05;;;;;;;16.73;6.82;;;;;;;;;;5022740;28;20477;-81
2022/01/13 00:40:31;;;;;;;10.38;5.25;;;;;;;;;;5026089;28;20424;-82
2022/01/13 00:42:58;;;;;;;7.40;4.55;;;;;;;;;;5026137;28;20033;-81
2022/01/13 00:45:24;;;;;;;8.30;4.30;;;;;;;;;;5031302;28;20033;-81
2022/01/13 00:47:50;;;;;;;9.27;4.63;;;;;;;;;;5011428;28;20042;-81
2022/01/13 00:50:18;;;;;;;10.95;4.75;;;;;;;;;;5013279;28;20038;-82
2022/01/13 00:52:44;;;;;;;10.13;5.00;;;;;;;;;;5032341;28;20220;-82
2022/01/13 00:55:15;;;;;;;10.25;5.25;;;;;;;;;;5034765;28;20045;-82
2022/01/13 00:57:41;;;;;;;9.55;5.40;;;;;;;;;;5011999;28;20033;-83
2022/01/13 01:00:08;;;;;;;9.93;5.35;;;;;;;;;;5002932;28;20026;-82
2022/01/13 01:02:34;;;;;;;14.55;6.43;;;;;;;;;;5028861;28;20041;-82
2022/01/13 01:05:01;;;;;;;11.68;5.82;;;;;;;;;;5031234;28;20033;-82
2022/01/13 01:07:28;;;;;;;15.57;7.03;;;;;;;;;;5012535;28;20041;-83
2022/01/13 01:09:58;;;;;;;11.27;6.90;;;;;;;;;;5009422;28;20033;-82
2022/01/13 01:12:25;;;;;;;16.70;6.68;;;;;;;;;;5010900;28;20061;-82
2022/01/13 01:14:56;;;;;;;10.35;6.70;;;;;;;;;;5024843;28;20026;-82
2022/01/13 01:17:23;;;;;;;14.45;6.10;;;;;;;;;;5027309;28;20030;-82
2022/01/13 01:19:51;;;;;;;14.15;6.85;;;;;;;;;;5014049;28;20056;-83
2022/01/13 01:27:23;;;;;;;23.15;6.63;;;;;;;;;;5031857;28;20046;-83
2022/01/13 01:29:58;;;;;;;16.05;6.70;;;;;;;;;;5013357;28;20049;-82
2022/01/13 01:32:25;;;;;;;18.58;6.53;;;;;;;;;;5015417;28;20159;-81
2022/01/13 01:35:01;;;;;;;16.40;7.22;;;;;;;;;;5031788;28;20344;-83
2022/01/13 01:37:29;;;;;;;15.70;7.88;;;;;;;;;;5025162;28;20524;-82
2022/01/13 01:39:57;;;;;;;16.88;7.40;;;;;;;;;;5019350;28;20086;-84
2022/01/13 01:42:24;;;;;;;23.40;7.85;;;;;;;;;;5034574;28;20044;-84
2022/01/13 01:44:53;;;;;;;27.35;10.85;;;;;;;;;;5017038;28;20037;-83
2022/01/13 01:47:20;;;;;;;36.90;12.68;;;;;;;;;;5032038;28;20087;-82
2022/01/13 01:49:52;;;;;;;22.42;9.15;;;;;;;;;;5037581;28;20029;-84
2022/01/13 01:52:20;;;;;;;25.63;10.23;;;;;;;;;;5035644;28;20022;-82
2022/01/13 01:54:48;;;;;;;25.05;11.85;;;;;;;;;;5036444;28;20080;-83
2022/01/13 01:57:14;;;;;;;20.48;11.27;;;;;;;;;;5036020;28;20428;-84
2022/01/13 01:59:42;;;;;;;25.75;11.60;;;;;;;;;;5024069;28;20028;-81
2022/01/13 02:02:12;;;;;;;33.67;12.43;;;;;;;;;;5025977;28;20033;-81
2022/01/13 02:04:44;;;;;;;43.28;15.20;;;;;;;;;;5034976;28;20040;-82
2022/01/13 02:07:11;;;;;;;32.03;12.63;;;;;;;;;;5019548;28;20029;-82
2022/01/13 02:09:41;;;;;;;52.65;16.02;;;;;;;;;;5032675;28;20045;-82
2022/01/13 02:12:11;;;;;;;57.53;15.95;;;;;;;;;;5022272;28;20449;-83
2022/01/13 02:14:55;;;;;;;39.33;14.68;;;;;;;;;;5031322;28;20408;-84
2022/01/13 02:17:25;;;;;;;54.55;21.58;;;;;;;;;;5023901;28;20069;-83
2022/01/13 02:19:53;;;;;;;48.35;19.02;;;;;;;;;;5034753;28;20061;-83
2022/01/13 02:22:19;;;;;;;48.70;20.23;;;;;;;;;;5025234;28;20048;-83
2022/01/13 02:24:45;;;;;;;48.58;18.20;;;;;;;;;;5008424;28;20039;-83
2022/01/13 02:27:12;;;;;;;44.47;18.60;;;;;;;;;;5024647;28;20026;-80
2022/01/13 02:29:38;;;;;;;44.58;20.00;;;;;;;;;;5025633;28;20025;-82
2022/01/13 02:32:07;;;;;;;32.17;18.25;;;;;;;;;;5008286;28;20397;-82
2022/01/13 02:34:33;;;;;;;47.67;21.58;;;;;;;;;;5023736;28;20033;-81
2022/01/13 02:37:21;;;;;;;50.45;21.08;;;;;;;;;;5027520;28;20381;-81
2022/01/13 02:39:48;;;;;;;54.40;22.83;;;;;;;;;;5001682;28;20036;-81
2022/01/13 02:42:15;;;;;;;54.78;24.42;;;;;;;;;;5028161;28;20028;-82
2022/01/13 02:45:14;;;;;;;58.08;25.02;;;;;;;;;;5010796;28;20025;-82
2022/01/13 02:50:12;;;;;;;73.35;32.85;;;;;;;;;;5034900;28;20033;-82
2022/01/13 02:52:40;;;;;;;62.55;30.70;;;;;;;;;;5027180;28;20025;-82
2022/01/13 02:55:06;;;;;;;67.25;33.58;;;;;;;;;;5026774;28;20033;-82
2022/01/13 02:57:35;;;;;;;71.32;35.78;;;;;;;;;;5030412;28;20033;-81
2022/01/13 03:00:01;;;;;;;81.20;36.05;;;;;;;;;;5027182;28;20030;-80
2022/01/13 03:02:52;;;;;;;78.70;37.15;;;;;;;;;;5031704;28;20037;-81
2022/01/13 03:08:23;;;;;;;74.32;37.80;;;;;;;;;;4946294;28;20049;-81
2022/01/13 03:11:11;;;;;;;79.00;36.25;;;;;;;;;;5009356;28;20042;-82
2022/01/13 03:13:58;;;;;;;74.97;36.35;;;;;;;;;;5012017;28;20052;-82
2022/01/13 03:16:37;;;;;;;79.05;35.97;;;;;;;;;;4949017;28;20043;-83
2022/01/13 03:19:20;;;;;;;70.00;33.63;;;;;;;;;;5016237;28;20034;-85
2022/01/13 03:21:47;;;;;;;71.68;32.78;;;;;;;;;;5010198;28;20102;-82
2022/01/13 03:24:13;;;;;;;64.88;34.53;;;;;;;;;;5025769;28;20033;-81
2022/01/13 03:26:41;;;;;;;59.88;28.33;;;;;;;;;;5025029;28;20033;-82
2022/01/13 03:29:15;;;;;;;49.97;27.17;;;;;;;;;;5025234;28;20033;-82
2022/01/13 03:31:43;;;;;;;48.90;27.85;;;;;;;;;;5028878;28;20061;-80
2022/01/13 03:34:09;;;;;;;53.55;28.65;;;;;;;;;;5025399;28;20076;-80
2022/01/13 03:36:36;;;;;;;59.53;26.90;;;;;;;;;;5028235;28;20025;-80
2022/01/13 03:39:02;;;;;;;56.10;29.63;;;;;;;;;;5029817;28;20033;-82
2022/01/13 03:41:29;;;;;;;55.60;30.58;;;;;;;;;;5026956;28;20107;-82
2022/01/13 03:43:55;;;;;;;61.78;30.65;;;;;;;;;;5021686;28;20037;-81
2022/01/13 03:46:22;;;;;;;52.60;28.20;;;;;;;;;;5022619;28;20493;-78
2022/01/13 03:48:48;;;;;;;52.90;29.73;;;;;;;;;;5003688;28;20421;-79
2022/01/13 03:51:15;;;;;;;65.10;32.85;;;;;;;;;;5022732;28;20030;-80
2022/01/13 03:54:00;;;;;;;70.35;39.60;;;;;;;;;;5008796;28;20026;-81
2022/01/13 03:56:29;;;;;;;81.45;40.72;;;;;;;;;;5024362;28;20120;-80
2022/01/13 03:59:01;;;;;;;80.90;41.13;;;;;;;;;;5022251;28;20080;-81
2022/01/13 04:01:46;;;;;;;76.07;40.22;;;;;;;;;;5003548;28;20033;-81
2022/01/13 04:04:13;;;;;;;88.00;45.85;;;;;;;;;;5021534;28;20120;-79
2022/01/13 04:06:42;;;;;;;86.97;46.00;;;;;;;;;;5026391;28;20205;-79
2022/01/13 04:09:28;;;;;;;87.82;44.63;;;;;;;;;;5023602;28;20026;-81
2022/01/13 04:11:55;;;;;;;74.25;41.13;;;;;;;;;;5023456;28;20037;-81
2022/01/13 04:14:29;;;;;;;84.18;40.63;;;;;;;;;;5029799;28;20053;-80
2022/01/13 04:17:11;;;;;;;;;;;;;;;;;;;;;
2022/01/13 04:19:38;;;;;;;74.72;40.17;;;;;;;;;;5027120;28;20034;-80
2022/01/13 04:22:21;;;;;;;72.45;39.55;;;;;;;;;;5029209;28;20132;-79
2022/01/13 04:24:48;;;;;;;74.28;38.80;;;;;;;;;;5023877;28;20030;-78
2022/01/13 04:27:44;;;;;;;67.00;38.65;;;;;;;;;;5027380;28;20031;-79
2022/01/13 04:32:41;;;;;;;68.95;37.10;;;;;;;;;;5026832;28;20400;-79
2022/01/13 04:35:11;;;;;;;66.53;37.22;;;;;;;;;;5024622;28;20021;-79
2022/01/13 04:37:45;;;;;;;59.00;36.95;;;;;;;;;;5025095;28;20037;-81
2022/01/13 04:40:13;;;;;;;64.53;34.10;;;;;;;;;;5027849;28;20409;-82
2022/01/13 04:42:43;;;;;;;66.30;35.92;;;;;;;;;;5027792;28;20097;-78
2022/01/13 04:45:10;;;;;;;62.67;37.92;;;;;;;;;;5009744;28;20044;-80
2022/01/13 04:47:36;;;;;;;70.72;34.75;;;;;;;;;;5026739;28;20551;-79
2022/01/13 04:50:02;;;;;;;56.60;32.22;;;;;;;;;;5004608;28;20097;-81
2022/01/13 04:52:29;;;;;;;55.40;29.05;;;;;;;;;;5005227;28;20048;-80
2022/01/13 04:54:55;;;;;;;44.88;27.98;;;;;;;;;;5019350;28;20033;-79
2022/01/13 04:57:22;;;;;;;53.90;29.73;;;;;;;;;;5020034;28;20530;-80
2022/01/13 04:59:48;;;;;;;45.92;26.55;;;;;;;;;;5004478;28;20080;-81
2022/01/13 05:02:16;;;;;;;51.45;26.70;;;;;;;;;;5018075;28;20037;-81
2022/01/13 05:04:42;;;;;;;51.58;26.00;;;;;;;;;;5017370;28;20116;-81
2022/01/13 05:07:09;;;;;;;43.10;26.80;;;;;;;;;;5023771;28;20029;-80
2022/01/13 05:09:35;;;;;;;55.58;28.75;;;;;;;;;;5024428;28;21526;-80
2022/01/13 05:12:02;;;;;;;53.45;29.08;;;;;;;;;;5009641;28;20396;-81
2022/01/13 05:14:30;;;;;;;50.25;29.52;;;;;;;;;;5022125;28;20164;-81
2022/01/13 05:17:04;;;;;;;51.30;29.13;;;;;;;;;;5021279;28;20033;-80
2022/01/13 05:19:37;;;;;;;49.40;29.00;;;;;;;;;;5028208;28;20032;-82
2022/01/13 05:24:33;;;;;;;56.40;29.17;;;;;;;;;;5021591;28;20111;-81
2022/01/13 05:27:02;;;;;;;47.80;29.05;;;;;;;;;;5018308;28;20041;-80
2022/01/13 05:29:29;;;;;;;54.00;30.65;;;;;;;;;;5025266;28;20035;-85
2022/01/13 05:31:56;;;;;;;57.13;32.05;;;;;;;;;;5024643;28;20037;-80
2022/01/13 05:34:22;;;;;;;52.55;32.67;;;;;;;;;;5024576;28;20045;-82
2022/01/13 05:36:48;;;;;;;63.35;33.65;;;;;;;;;;5022939;28;20026;-81
2022/01/13 05:39:15;;;;;;;69.00;34.13;;;;;;;;;;5023836;28;20108;-81
2022/01/13 05:41:41;;;;;;;60.80;34.40;;;;;;;;;;5005102;28;20037;-82
2022/01/13 05:44:07;;;;;;;62.40;34.88;;;;;;;;;;5023496;28;20037;-80
2022/01/13 05:46:36;;;;;;;69.53;37.38;;;;;;;;;;5006128;28;20049;-81
2022/01/13 05:49:03;;;;;;;74.03;37.35;;;;;;;;;;5021512;28;20497;-80
2022/01/13 05:51:29;;;;;;;80.38;40.20;;;;;;;;;;5025141;28;20037;-81
2022/01/13 05:53:55;;;;;;;67.20;37.97;;;;;;;;;;5024455;28;20044;-80
2022/01/13 05:56:22;;;;;;;68.18;37.47;;;;;;;;;;5023487;28;20029;-80
2022/01/13 05:58:48;;;;;;;70.07;39.17;;;;;;;;;;5022544;28;20022;-81
2022/01/13 06:01:15;;;;;;;74.53;40.15;;;;;;;;;;5009781;28;20477;-82
2022/01/13 06:03:41;;;;;;;72.30;39.15;;;;;;;;;;5010239;28;20071;-82
2022/01/13 06:06:07;;;;;;;75.63;39.83;;;;;;;;;;5029394;28;20037;-80
2022/01/13 06:08:35;;;;;;;74.68;40.08;;;;;;;;;;5025434;28;20041;-81
2022/01/13 06:11:01;;;;;;;71.85;41.28;;;;;;;;;;5030080;28;20369;-81
2022/01/13 06:13:27;;;;;;;72.75;42.20;;;;;;;;;;5015139;28;20042;-82
2022/01/13 06:15:54;;;;;;;80.10;41.90;;;;;;;;;;5027047;28;20099;-81
2022/01/13 06:18:24;;;;;;;68.68;41.53;;;;;;;;;;5024145;28;20033;-81
2022/01/13 06:20:51;;;;;;;83.80;43.63;;;;;;;;;;5007082;28;20029;-81
2022/01/13 06:23:18;;;;;;;73.55;43.55;;;;;;;;;;5030906;28;20049;-80
2022/01/13 06:25:44;;;;;;;80.90;44.50;;;;;;;;;;5026467;28;20122;-81
2022/01/13 06:28:11;;;;;;;88.10;47.38;;;;;;;;;;5023642;28;20062;-79
2022/01/13 06:30:37;;;;;;;85.43;48.30;;;;;;;;;;5025223;28;20032;-80
2022/01/13 06:33:04;;;;;;;82.55;49.72;;;;;;;;;;5025887;28;20542;-80
2022/01/13 06:35:30;;;;;;;77.28;48.60;;;;;;;;;;5008311;28;20478;-83
2022/01/13 06:37:57;;;;;;;82.28;51.70;;;;;;;;;;5025357;28;20095;-81
2022/01/13 06:40:24;;;;;;;91.35;51.88;;;;;;;;;;5025807;28;20104;-83
2022/01/13 06:42:51;;;;;;;93.78;52.08;;;;;;;;;;5025732;28;20038;-81
2022/01/13 06:45:17;;;;;;;89.60;54.75;;;;;;;;;;5027997;28;20037;-84
2022/01/13 06:47:43;;;;;;;97.00;54.22;;;;;;;;;;5011693;28;20034;-82
2022/01/13 06:50:13;;;;;;;106.03;59.35;;;;;;;;;;5024709;28;20586;-83
2022/01/13 06:52:46;;;;;;;93.10;56.22;;;;;;;;;;5027194;28;20037;-82
2022/01/13 06:55:12;;;;;;;101.38;54.58;;;;;;;;;;5007490;28;20029;-82
2022/01/13 06:57:38;;;;;;;105.57;55.90;;;;;;;;;;5026313;28;20030;-81
2022/01/13 07:00:05;;;;;;;96.50;56.50;;;;;;;;;;5011815;28;20071;-83
2022/01/13 07:02:33;;;;;;;97.10;55.00;;;;;;;;;;5033730;28;20076;-81
2022/01/13 07:04:59;;;;;;;95.95;57.30;;;;;;;;;;5033062;28;20026;-81
2022/01/13 07:07:26;;;;;;;102.35;57.13;;;;;;;;;;5012471;28;20030;-83
2022/01/13 07:09:53;;;;;;;94.72;57.58;;;;;;;;;;5022965;28;20087;-82
2022/01/13 07:12:19;;;;;;;97.07;56.72;;;;;;;;;;5028333;28;20036;-81
2022/01/13 07:14:46;;;;;;;98.25;57.33;;;;;;;;;;5009390;28;20110;-84
2022/01/13 07:17:16;;;;;;;84.80;50.75;;;;;;;;;;5010211;28;20037;-81
2022/01/13 07:19:42;;;;;;;83.55;48.58;;;;;;;;;;5026284;28;20044;-82
2022/01/13 07:22:09;;;;;;;84.78;52.08;;;;;;;;;;5029528;28;20041;-81
2022/01/13 07:24:36;;;;;;;91.65;54.10;;;;;;;;;;5020885;28;20090;-83
2022/01/13 07:27:02;;;;;;;87.25;50.10;;;;;;;;;;5025780;28;20036;-82
2022/01/13 07:29:29;;;;;;;86.72;52.17;;;;;;;;;;5007110;28;20550;-83
2022/01/13 07:31:55;;;;;;;89.43;51.33;;;;;;;;;;5021452;28;20026;-80
2022/01/13 07:34:21;;;;;;;83.60;46.45;;;;;;;;;;5022437;28;20113;-83
2022/01/13 07:36:48;;;;;;;77.97;44.92;;;;;;;;;;5024619;28;20052;-82
2022/01/13 07:39:14;;;;;;;64.45;39.33;;;;;;;;;;5027437;28;20033;-82
2022/01/13 07:41:42;;;;;;;66.57;38.38;;;;;;;;;;5025604;28;20025;-81
2022/01/13 07:44:08;;;;;;;62.95;37.13;;;;;;;;;;5026302;28;20057;-81
2022/01/13 07:46:35;;;;;;;65.60;37.08;;;;;;;;;;5009748;28;20381;-84
2022/01/13 07:49:02;;;;;;;62.10;35.28;;;;;;;;;;5008297;28;20056;-84
2022/01/13 07:51:31;;;;;;;58.47;31.77;;;;;;;;;;5026475;28;20025;-84
2022/01/13 07:53:58;;;;;;;53.90;33.03;;;;;;;;;;5004687;28;20047;-84
2022/01/13 07:56:24;;;;;;;61.28;32.17;;;;;;;;;;5014929;28;20060;-84
2022/01/13 07:58:51;;;;;;;64.25;33.55;;;;;;;;;;5009928;28;20059;-83
2022/01/13 08:01:17;;;;;;;60.60;32.85;;;;;;;;;;5025160;28;20117;-82
2022/01/13 08:03:43;;;;;;;57.10;32.78;;;;;;;;;;5008655;28;20026;-84
2022/01/13 08:06:10;;;;;;;52.10;29.02;;;;;;;;;;5027651;28;20032;-83
2022/01/13 08:08:36;;;;;;;47.08;26.13;;;;;;;;;;5006040;28;20456;-83
2022/01/13 08:11:07;;;;;;;46.03;24.92;;;;;;;;;;5028314;28;20033;-85
2022/01/13 08:13:34;;;;;;;34.83;21.92;;;;;;;;;;5023467;28;20030;-83
2022/01/13 08:16:03;;;;;;;46.65;26.58;;;;;;;;;;5005498;28;20534;-85
2022/01/13 08:21:14;;;;;;;44.60;26.48;;;;;;;;;;5022115;28;20088;-84
2022/01/13 08:23:41;;;;;;;43.30;23.10;;;;;;;;;;5026022;28;20049;-82
2022/01/13 08:26:07;;;;;;;36.58;17.30;;;;;;;;;;5012414;28;20044;-84
2022/01/13 08:28:34;;;;;;;27.95;16.35;;;;;;;;;;5005213;28;20063;-83
2022/01/13 08:31:00;;;;;;;33.63;18.70;;;;;;;;;;5005339;28;20128;-85
2022/01/13 08:33:26;;;;;;;46.17;21.38;;;;;;;;;;5018673;28;20125;-83
2022/01/13 08:35:54;;;;;;;32.63;14.82;;;;;;;;;;5022286;28;20470;-84
2022/01/13 08:38:21;;;;;;;34.28;15.68;;;;;;;;;;5016459;28;20472;-84
2022/01/13 08:40:49;;;;;;;37.13;16.52;;;;;;;;;;5015999;28;20037;-84
2022/01/13 08:43:16;;;;;;;33.13;17.35;;;;;;;;;;5022286;28;20508;-83
2022/01/13 08:45:42;;;;;;;33.15;17.58;;;;;;;;;;5025046;28;20369;-83
2022/01/13 08:48:09;;;;;;;24.33;14.40;;;;;;;;;;5024944;28;20018;-85
2022/01/13 08:50:36;;;;;;;39.40;17.85;;;;;;;;;;5025706;28;20127;-84
2022/01/13 08:53:02;;;;;;;31.00;15.77;;;;;;;;;;5025591;28;20033;-82
2022/01/13 08:55:29;;;;;;;29.90;16.00;;;;;;;;;;4989412;28;20021;-84
2022/01/13 08:57:55;;;;;;;29.17;16.83;;;;;;;;;;5024944;28;20022;-83
2022/01/13 09:00:21;;;;;;;36.35;19.25;;;;;;;;;;5026033;28;20143;-83
2022/01/13 09:02:48;;;;;;;41.45;18.05;;;;;;;;;;5023409;28;20117;-84
2022/01/13 09:05:16;;;;;;;34.30;16.45;;;;;;;;;;5025476;28;20026;-83
2022/01/13 09:07:42;;;;;;;34.60;18.02;;;;;;;;;;5030277;28;20165;-86
2022/01/13 09:10:09;;;;;;;33.72;19.27;;;;;;;;;;5003852;28;20125;-83
2022/01/13 09:12:37;;;;;;;29.50;16.33;;;;;;;;;;5017023;28;20030;-87
2022/01/13 09:15:15;;;;;;;33.42;16.75;;;;;;;;;;5018616;28;20041;-84
2022/01/13 09:17:43;;;;;;;29.50;16.40;;;;;;;;;;5003853;28;20030;-83
2022/01/13 09:20:13;;;;;;;27.58;15.27;;;;;;;;;;5020654;28;20032;-83
2022/01/13 09:22:39;;;;;;;33.33;17.45;;;;;;;;;;5023752;28;20481;-83
2022/01/13 09:25:07;;;;;;;36.95;19.55;;;;;;;;;;5005817;28;20079;-85
2022/01/13 09:27:33;;;;;;;34.95;20.73;;;;;;;;;;4986803;28;20038;-85
2022/01/13 09:30:00;;;;;;;40.50;20.38;;;;;;;;;;5020029;28;20136;-85
2022/01/13 09:32:27;;;;;;;36.00;19.33;;;;;;;;;;5020644;28;20040;-85
2022/01/13 09:34:53;;;;;;;36.75;17.55;;;;;;;;;;5024311;28;20021;-86
2022/01/13 09:37:19;;;;;;;34.72;18.70;;;;;;;;;;5003413;28;20033;-84
2022/01/13 09:39:46;;;;;;;34.65;18.75;;;;;;;;;;5024214;28;20017;-85
2022/01/13 09:42:13;;;;;;;33.67;17.30;;;;;;;;;;5018810;28;20029;-84
2022/01/13 09:44:40;;;;;;;25.83;12.80;;;;;;;;;;5003931;28;20037;-83
2022/01/13 09:47:06;;;;;;;24.40;13.45;;;;;;;;;;5023698;28;20140;-85
2022/01/13 09:49:33;;;;;;;27.02;14.02;;;;;;;;;;5000742;28;20034;-86
2022/01/13 09:51:59;;;;;;;29.45;15.07;;;;;;;;;;5019572;28;20908;-84
2022/01/13 09:54:26;;;;;;;36.17;16.40;;;;;;;;;;5021040;28;20034;-83
2022/01/13 09:56:53;;;;;;;31.02;14.57;;;;;;;;;;5003647;28;20030;-86
2022/01/13 09:59:19;;;;;;;32.95;18.02;;;;;;;;;;5004627;28;20038;-85
2022/01/13 10:01:46;;;;;;;36.50;17.67;;;;;;;;;;5020508;28;20096;-83
2022/01/13 10:04:12;;;;;;;40.08;18.15;;;;;;;;;;5021568;28;20380;-84
2022/01/13 10:06:47;;;;;;;41.25;21.27;;;;;;;;;;5019972;28;20135;-85
2022/01/13 10:09:14;;;;;;;32.58;16.13;;;;;;;;;;5018383;28;20030;-85
2022/01/13 10:11:54;;;;;;;27.00;15.57;;;;;;;;;;5027286;28;20034;-81
2022/01/13 10:17:01;;;;;;;19.52;11.55;;;;;;;;;;5033010;28;20049;-82
2022/01/13 10:19:31;;;;;;;23.77;11.40;;;;;;;;;;5017399;28;20488;-83
2022/01/13 10:22:01;;;;;;;19.05;11.18;;;;;;;;;;5027568;28;20056;-83
2022/01/13 10:24:29;;;;;;;25.23;9.48;;;;;;;;;;5027492;28;20037;-83
2022/01/13 10:27:03;;;;;;;20.77;9.75;;;;;;;;;;5001982;28;20350;-83
2022/01/13 10:29:36;;;;;;;19.13;9.25;;;;;;;;;;5027091;28;20029;-82
2022/01/13 10:32:03;;;;;;;22.52;9.95;;;;;;;;;;5024909;28;20095;-83
2022/01/13 10:34:32;;;;;;;20.42;9.00;;;;;;;;;;5028822;28;20032;-83
2022/01/13 10:37:01;;;;;;;28.88;11.10;;;;;;;;;;5009492;28;20535;-84
2022/01/13 10:39:49;;;;;;;27.55;11.80;;;;;;;;;;5006719;28;20038;-82
2022/01/13 10:43:06;;;;;;;28.08;10.88;;;;;;;;;;5025955;28;20121;-83
2022/01/13 10:45:19;;;;;;;20.98;11.82;;;;;;;;;;5023702;28;20085;-84
2022/01/13 10:47:53;;;;;;;32.90;16.40;;;;;;;;;;5006084;28;20032;-84
2022/01/13 10:50:20;;;;;;;43.17;17.63;;;;;;;;;;5022906;28;20021;-84
2022/01/13 10:52:49;;;;;;;41.28;18.10;;;;;;;;;;5012728;28;20029;-85
2022/01/13 10:55:15;;;;;;;35.40;17.33;;;;;;;;;;5008729;28;20028;-84
2022/01/13 10:57:43;;;;;;;32.97;16.75;;;;;;;;;;5004190;28;20031;-84
2022/01/13 11:00:18;;;;;;;37.70;16.40;;;;;;;;;;5024445;28;20678;-83
2022/01/13 11:02:48;;;;;;;38.42;18.15;;;;;;;;;;5009269;28;21712;-84
2022/01/13 11:05:15;;;;;;;38.70;18.83;;;;;;;;;;5030008;28;20073;-83
2022/01/13 11:07:42;;;;;;;35.72;17.35;;;;;;;;;;5026846;28;20026;-84
2022/01/13 11:10:09;;;;;;;42.72;17.40;;;;;;;;;;5027292;28;20684;-85
2022/01/13 11:12:38;;;;;;;33.85;15.98;;;;;;;;;;5024088;28;20496;-84
2022/01/13 11:15:07;;;;;;;29.60;15.82;;;;;;;;;;5030921;28;20032;-84
2022/01/13 11:17:38;;;;;;;39.00;18.27;;;;;;;;;;5027622;28;20030;-83
2022/01/13 11:20:09;;;;;;;39.03;16.30;;;;;;;;;;5007446;28;20021;-85
2022/01/13 11:22:38;;;;;;;35.25;15.82;;;;;;;;;;5027362;28;20463;-81
2022/01/13 11:25:08;;;;;;;31.85;16.10;;;;;;;;;;5006259;28;20439;-82
2022/01/13 11:27:38;;;;;;;34.80;18.08;;;;;;;;;;5026401;28;20029;-82
2022/01/13 11:30:07;;;;;;;35.65;17.65;;;;;;;;;;5023791;28;20029;-83
2022/01/13 11:32:33;;;;;;;35.15;18.17;;;;;;;;;;5024899;28;20037;-83
2022/01/13 11:35:03;;;;;;;53.15;24.08;;;;;;;;;;5029291;28;20018;-85
2022/01/13 11:37:30;;;;;;;50.22;23.85;;;;;;;;;;5026875;28;20053;-84
2022/01/13 11:39:56;;;;;;;59.17;27.58;;;;;;;;;;5029833;28;20480;-83
2022/01/13 11:42:23;;;;;;;56.38;27.05;;;;;;;;;;5018296;28;20037;-82
2022/01/13 11:45:08;;;;;;;65.32;29.33;;;;;;;;;;5039237;28;20048;-84
2022/01/13 11:47:42;;;;;;;70.57;31.85;;;;;;;;;;5010484;28;20500;-85
2022/01/13 11:50:30;;;;;;;56.60;31.50;;;;;;;;;;5027088;28;20025;-86
2022/01/13 11:52:58;;;;;;;61.47;34.13;;;;;;;;;;5030602;28;20120;-82
2022/01/13 11:55:35;;;;;;;69.05;36.20;;;;;;;;;;5029341;28;20025;-82
2022/01/13 11:58:23;;;;;;;70.15;34.47;;;;;;;;;;5010446;28;20028;-83
2022/01/13 12:00:51;;;;;;;70.93;36.65;;;;;;;;;;5015840;28;20025;-85
2022/01/13 12:03:23;;;;;;;72.55;35.88;;;;;;;;;;5016871;28;20021;-82
2022/01/13 12:05:53;;;;;;;73.75;37.30;;;;;;;;;;5030565;28;20536;-83
2022/01/13 12:08:38;;;;;;;61.17;31.95;;;;;;;;;;5035640;28;20108;-86
2022/01/13 12:11:07;;;;;;;62.20;30.70;;;;;;;;;;5033403;28;20071;-82
2022/01/13 12:13:35;;;;;;;64.03;29.35;;;;;;;;;;5015352;28;20385;-84
2022/01/13 12:16:02;;;;;;;68.85;30.83;;;;;;;;;;5030277;28;20127;-83
2022/01/13 12:18:48;;;;;;;67.80;33.17;;;;;;;;;;5023261;28;20025;-83
2022/01/13 12:21:28;;;;;;;63.13;29.67;;;;;;;;;;5029809;28;20501;-82
2022/01/13 12:23:56;;;;;;;58.80;30.80;;;;;;;;;;5027067;28;20029;-82
2022/01/13 12:26:31;;;;;;;70.63;33.03;;;;;;;;;;5026262;28;20027;-82
2022/01/13 12:29:10;;;;;;;70.15;33.78;;;;;;;;;;5023203;28;20025;-83
2022/01/13 12:31:48;;;;;;;69.40;33.78;;;;;;;;;;5032001;28;20045;-79
2022/01/13 12:34:44;;;;;;;68.93;32.35;;;;;;;;;;5019723;28;20025;-82
2022/01/13 12:37:13;;;;;;;64.68;32.30;;;;;;;;;;5018625;28;20385;-81
2022/01/13 12:39:41;;;;;;;65.25;33.60;;;;;;;;;;5031791;28;20120;-83
2022/01/13 12:42:13;;;;;;;69.20;30.05;;;;;;;;;;5017215;28;20033;-81
2022/01/13 12:47:25;;;;;;;55.58;29.52;;;;;;;;;;5030332;28;20080;-84
2022/01/13 12:49:55;;;;;;;57.83;29.67;;;;;;;;;;5016576;28;20400;-82
2022/01/13 12:52:22;;;;;;;56.50;29.13;;;;;;;;;;5033216;28;20042;-82
2022/01/13 12:54:49;;;;;;;72.95;34.10;;;;;;;;;;5028274;28;20503;-86
2022/01/13 12:57:16;;;;;;;63.78;31.38;;;;;;;;;;5031064;28;20056;-83
2022/01/13 12:59:45;;;;;;;59.30;29.55;;;;;;;;;;5021519;28;20021;-85
2022/01/13 13:02:11;;;;;;;55.90;28.70;;;;;;;;;;5026369;28;20477;-83
2022/01/13 13:04:38;;;;;;;65.40;29.70;;;;;;;;;;5030292;28;20525;-83
2022/01/13 13:07:08;;;;;;;68.80;31.33;;;;;;;;;;5027449;28;20083;-84
2022/01/13 13:09:34;;;;;;;62.35;31.27;;;;;;;;;;5027599;28;20479;-84
2022/01/13 13:12:03;;;;;;;67.85;31.13;;;;;;;;;;5029201;28;20446;-84
2022/01/13 13:17:35;;;;;;;78.95;42.90;;;;;;;;;;5026980;28;20091;-82
2022/01/13 13:20:02;;;;;;;83.25;40.15;;;;;;;;;;5032404;28;20048;-82
2022/01/13 13:22:28;;;;;;;78.03;42.13;;;;;;;;;;5018375;28;20088;-81
2022/01/13 13:24:55;;;;;;;82.35;39.35;;;;;;;;;;5026832;28;20094;-83
2022/01/13 13:27:29;;;;;;;81.20;41.53;;;;;;;;;;5027190;28;20404;-83
2022/01/13 13:29:55;;;;;;;98.57;43.92;;;;;;;;;;5028341;28;20018;-82
2022/01/13 13:32:22;;;;;;;79.97;42.53;;;;;;;;;;5030393;28;20047;-82
2022/01/13 13:34:48;;;;;;;81.00;43.42;;;;;;;;;;5005871;28;20025;-83
2022/01/13 13:37:15;;;;;;;96.57;47.58;;;;;;;;;;5032966;28;20032;-84
2022/01/13 13:39:41;;;;;;;104.13;52.72;;;;;;;;;;5033286;28;20108;-83
2022/01/13 13:42:12;;;;;;;110.53;61.75;;;;;;;;;;5014855;28;20029;-83
2022/01/13 13:44:41;;;;;;;132.43;78.57;;;;;;;;;;5029437;28;20034;-83
2022/01/13 13:47:13;;;;;;;145.75;77.68;;;;;;;;;;5032793;28;20025;-82
2022/01/13 13:49:40;;;;;;;165.73;93.25;;;;;;;;;;5032314;28;20022;-83
2022/01/13 13:52:08;;;;;;;163.23;96.47;;;;;;;;;;5034608;28;20036;-83
2022/01/13 13:54:34;;;;;;;156.68;94.10;;;;;;;;;;5034148;28;20443;-81
2022/01/13 13:57:05;;;;;;;163.30;95.80;;;;;;;;;;5034957;28;20045;-80
2022/01/13 13:59:36;;;;;;;159.45;96.45;;;;;;;;;;5038315;28;20021;-83
2022/01/13 14:02:09;;;;;;;165.27;100.78;;;;;;;;;;5034874;28;20052;-82
2022/01/13 14:04:46;;;;;;;184.73;107.95;;;;;;;;;;5042480;28;20038;-80
2022/01/13 14:07:39;;;;;;;181.18;107.88;;;;;;;;;;5033398;28;20029;-84
2022/01/13 14:10:08;;;;;;;182.20;110.82;;;;;;;;;;5007883;28;20040;-84
2022/01/13 14:12:39;;;;;;;192.23;114.55;;;;;;;;;;5008974;28;20061;-83
2022/01/13 14:15:12;;;;;;;190.00;111.53;;;;;;;;;;5032155;28;20032;-85
2022/01/13 14:17:38;;;;;;;194.25;116.55;;;;;;;;;;5014335;28;20613;-85
2022/01/13 14:20:08;;;;;;;188.85;114.43;;;;;;;;;;5036191;28;20037;-83
2022/01/13 14:22:35;;;;;;;212.18;120.28;;;;;;;;;;5035930;28;20478;-84
2022/01/13 14:25:02;;;;;;;205.32;117.82;;;;;;;;;;5017041;28;20072;-85
2022/01/13 14:27:28;;;;;;;197.32;118.57;;;;;;;;;;5017547;28;20480;-85
2022/01/13 14:29:55;;;;;;;197.88;117.30;;;;;;;;;;5034368;28;20035;-85
2022/01/13 14:32:23;;;;;;;201.45;121.22;;;;;;;;;;5021461;28;20044;-85
2022/01/13 14:34:52;;;;;;;203.98;113.95;;;;;;;;;;5040137;28;20034;-82
2022/01/13 14:37:20;;;;;;;209.02;120.60;;;;;;;;;;5015512;28;20025;-83
2022/01/13 14:40:06;;;;;;;210.40;121.63;;;;;;;;;;5030183;28;20025;-82
2022/01/13 14:42:32;;;;;;;217.38;125.47;;;;;;;;;;5043373;28;20025;-83
2022/01/13 14:45:25;;;;;;;208.02;125.03;;;;;;;;;;5036999;28;20029;-86
2022/01/13 14:47:52;;;;;;;215.20;129.43;;;;;;;;;;5022082;28;20392;-84
2022/01/13 14:50:19;;;;;;;228.70;128.38;;;;;;;;;;5038356;28;20029;-80
2022/01/13 14:52:52;;;;;;;232.77;133.07;;;;;;;;;;5009526;28;20037;-86
2022/01/13 14:55:19;;;;;;;235.45;135.88;;;;;;;;;;5016683;28;20021;-84
2022/01/13 14:57:45;;;;;;;221.00;130.65;;;;;;;;;;5034429;28;20108;-84
2022/01/13 15:00:13;;;;;;;230.60;128.07;;;;;;;;;;5012997;28;20029;-87
2022/01/13 15:02:44;;;;;;;223.52;135.38;;;;;;;;;;5046368;28;20068;-85